Time;durP1;ratioP1;P1;durP2;ratioP2;P2;SDS_P1;SDS_P2;PMS_P1;PMS_P2;Temp;Humidity;BMP_temperature;BMP_pressure;BME280_temperature;BME280_humidity;BME280_pressure;Samples;Min_cycle;Max_cycle;Signal;HPM_P1;HPM_P2
2021/12/01 00:00:07;;;;;;;;;;;5.80;92.60;;;;;;4707466;27;19934;-74
2021/12/01 00:02:52;;;;;;;;;;;5.80;92.50;;;;;;4708200;27;19924;-74
2021/12/01 00:05:11;;;;;;;;;;;5.80;92.40;;;;;;4706291;27;19959;-74
2021/12/01 00:07:31;;;;;;;;;;;5.80;92.40;;;;;;4706234;27;19923;-73
2021/12/01 00:09:47;;;;;;;;;;;5.80;92.40;;;;;;4707799;27;19924;-73
2021/12/01 00:12:06;;;;;;;;;;;5.80;92.50;;;;;;4707086;27;19963;-73
2021/12/01 00:14:23;;;;;;;;;;;5.90;92.50;;;;;;4706485;27;20401;-73
2021/12/01 00:16:39;;;;;;;;;;;5.90;92.40;;;;;;4705613;27;19936;-73
2021/12/01 00:18:56;;;;;;;;;;;5.80;92.40;;;;;;4707339;27;19966;-73
2021/12/01 00:21:14;;;;;;;;;;;5.90;92.50;;;;;;4707324;27;20327;-74
2021/12/01 00:23:31;;;;;;;;;;;5.80;92.40;;;;;;4705811;27;19923;-74
2021/12/01 00:25:47;;;;;;;;;;;5.80;92.50;;;;;;4705839;27;19966;-73
2021/12/01 00:28:03;;;;;;;;;;;5.90;92.50;;;;;;4707431;27;19923;-74
2021/12/01 00:30:21;;;;;;;;;;;5.80;92.50;;;;;;4705596;27;19924;-74
2021/12/01 00:32:39;;;;;;;;;;;5.80;92.60;;;;;;4705879;27;20476;-74
2021/12/01 00:34:58;;;;;;;;;;;5.80;92.60;;;;;;4707140;27;20014;-73
2021/12/01 00:37:15;;;;;;;;;;;5.90;92.60;;;;;;4706994;27;19924;-73
2021/12/01 00:39:31;;;;;;;;;;;5.90;92.60;;;;;;4706896;27;19924;-73
2021/12/01 00:41:50;;;;;;;;;;;5.90;92.60;;;;;;4705687;27;20474;-73
2021/12/01 00:44:07;;;;;;;;;;;5.90;92.60;;;;;;4706772;27;20365;-74
2021/12/01 00:46:35;;;;;;;;;;;5.90;92.60;;;;;;4704924;27;19966;-73
2021/12/01 00:48:52;;;;;;;;;;;6.00;92.70;;;;;;4706757;27;20344;-73
2021/12/01 00:51:08;;;;;;;;;;;6.00;92.60;;;;;;4706543;27;20018;-74
2021/12/01 00:53:24;;;;;;;;;;;6.00;92.60;;;;;;4704184;27;19923;-72
2021/12/01 00:55:43;;;;;;;;;;;6.00;92.70;;;;;;4705310;27;20337;-74
2021/12/01 00:57:59;;;;;;;;;;;6.00;92.90;;;;;;4705253;27;19923;-73
2021/12/01 01:00:15;;;;;;;;;;;6.00;92.70;;;;;;4689206;27;19978;-74
2021/12/01 01:02:36;;;;;;;;;;;6.00;92.70;;;;;;4706084;27;19972;-74
2021/12/01 01:04:55;;;;;;;;;;;6.00;92.70;;;;;;4705881;27;19923;-72
2021/12/01 01:07:11;;;;;;;;;;;6.10;92.70;;;;;;4705862;27;20393;-74
2021/12/01 01:09:31;;;;;;;;;;;6.10;92.80;;;;;;4705929;27;19923;-74
2021/12/01 01:17:00;;;;;;;;;;;6.10;92.80;;;;;;4650368;27;20354;-73
2021/12/01 01:19:18;;;;;;;;;;;6.10;92.80;;;;;;4706112;27;19924;-74
2021/12/01 01:21:36;;;;;;;;;;;6.20;92.90;;;;;;4706880;27;19972;-72
2021/12/01 01:23:52;;;;;;;;;;;6.20;92.80;;;;;;4707273;27;19924;-72
2021/12/01 01:26:10;;;;;;;;;;;6.10;92.90;;;;;;4705428;27;20010;-71
2021/12/01 01:28:26;;;;;;;;;;;6.20;92.80;;;;;;4707738;27;20307;-72
2021/12/01 01:30:45;;;;;;;;;;;6.20;92.90;;;;;;4706915;27;20458;-72
2021/12/01 01:33:04;;;;;;;;;;;6.20;92.80;;;;;;4705716;27;19969;-73
2021/12/01 01:35:24;;;;;;;;;;;6.30;92.90;;;;;;4705545;27;19992;-72
2021/12/01 01:37:40;;;;;;;;;;;6.30;92.80;;;;;;4706860;27;19968;-73
2021/12/01 01:39:56;;;;;;;;;;;6.30;92.90;;;;;;4706829;27;19935;-72
2021/12/01 01:42:12;;;;;;;;;;;6.30;92.90;;;;;;4706746;27;20445;-73
2021/12/01 01:44:30;;;;;;;;;;;6.30;92.90;;;;;;4705413;27;19923;-72
2021/12/01 01:46:49;;;;;;;;;;;6.30;92.80;;;;;;4705212;27;19930;-73
2021/12/01 01:49:10;;;;;;;;;;;6.30;92.80;;;;;;4705610;27;19970;-73
2021/12/01 01:51:27;;;;;;;;;;;6.30;92.90;;;;;;4706329;27;19968;-72
2021/12/01 01:53:47;;;;;;;;;;;6.30;93.00;;;;;;4705657;27;20333;-73
2021/12/01 01:56:04;;;;;;;;;;;6.40;93.00;;;;;;4705841;27;20061;-74
2021/12/01 01:58:21;;;;;;;;;;;6.40;92.90;;;;;;4706679;27;19923;-74
2021/12/01 02:00:44;;;;;;;;;;;6.40;92.90;;;;;;4704925;27;19931;-75
2021/12/01 02:03:00;;;;;;;;;;;6.40;92.80;;;;;;4705207;27;19958;-74
2021/12/01 02:05:21;;;;;;;;;;;6.40;93.00;;;;;;4706335;27;19930;-75
2021/12/01 02:07:39;;;;;;;;;;;6.40;92.90;;;;;;4706398;27;19950;-73
2021/12/01 02:09:55;;;;;;;;;;;6.40;93.00;;;;;;4706329;27;19961;-75
2021/12/01 02:12:11;;;;;;;;;;;6.50;93.00;;;;;;4706585;27;20370;-75
2021/12/01 02:14:28;;;;;;;;;;;6.50;93.00;;;;;;4704968;27;19931;-74
2021/12/01 02:16:45;;;;;;;;;;;6.50;92.90;;;;;;4704939;27;19965;-74
2021/12/01 02:19:01;;;;;;;;;;;6.50;92.90;;;;;;4704948;27;19924;-73
2021/12/01 02:21:24;;;;;;;;;;;6.50;93.00;;;;;;4706074;27;19930;-74
2021/12/01 02:23:42;;;;;;;;;;;6.50;93.00;;;;;;4705490;27;20421;-75
2021/12/01 02:25:58;;;;;;;;;;;6.60;93.00;;;;;;4704393;27;19947;-76
2021/12/01 02:28:14;;;;;;;;;;;6.60;92.90;;;;;;4706555;27;19923;-76
2021/12/01 02:30:33;;;;;;;;;;;6.60;92.90;;;;;;4704540;28;19955;-76
2021/12/01 02:32:49;;;;;;;;;;;6.60;93.00;;;;;;4706477;27;19931;-76
2021/12/01 02:35:06;;;;;;;;;;;6.60;92.90;;;;;;4704410;28;19923;-76
2021/12/01 02:37:28;;;;;;;;;;;6.60;92.80;;;;;;4705044;28;19947;-75
2021/12/01 02:39:49;;;;;;;;;;;6.60;92.90;;;;;;4704713;28;20434;-75
2021/12/01 02:42:07;;;;;;;;;;;6.60;92.90;;;;;;4706075;27;19930;-75
2021/12/01 02:44:25;;;;;;;;;;;6.70;92.90;;;;;;4704644;28;19947;-74
2021/12/01 02:46:42;;;;;;;;;;;6.70;92.90;;;;;;4704719;28;19923;-76
2021/12/01 02:49:00;;;;;;;;;;;6.70;92.90;;;;;;4705942;27;20022;-75
2021/12/01 02:51:23;;;;;;;;;;;6.70;92.90;;;;;;4704996;28;19970;-75
2021/12/01 02:53:41;;;;;;;;;;;6.70;92.90;;;;;;4706183;27;20329;-75
2021/12/01 02:55:59;;;;;;;;;;;6.70;92.80;;;;;;4704389;28;19923;-75
2021/12/01 02:58:18;;;;;;;;;;;6.70;92.90;;;;;;4706196;27;19966;-75
2021/12/01 03:00:34;;;;;;;;;;;6.70;92.90;;;;;;4704218;28;19923;-76
2021/12/01 03:02:52;;;;;;;;;;;6.80;93.00;;;;;;4706226;27;19930;-75
2021/12/01 03:05:11;;;;;;;;;;;6.80;93.00;;;;;;4705580;27;20021;-74
2021/12/01 03:07:27;;;;;;;;;;;6.80;93.00;;;;;;4704887;27;20377;-75
2021/12/01 03:09:46;;;;;;;;;;;6.90;92.90;;;;;;4706770;27;19934;-76
2021/12/01 03:12:03;;;;;;;;;;;6.90;92.90;;;;;;4709740;27;19957;-75
2021/12/01 03:14:20;;;;;;;;;;;6.90;92.90;;;;;;4707893;27;19927;-75
2021/12/01 03:16:38;;;;;;;;;;;6.90;92.90;;;;;;4707996;27;19965;-76
2021/12/01 03:18:55;;;;;;;;;;;6.90;92.80;;;;;;4709531;27;19984;-76
2021/12/01 03:21:14;;;;;;;;;;;6.90;92.80;;;;;;4708024;27;19973;-75
2021/12/01 03:23:33;;;;;;;;;;;6.90;92.80;;;;;;4707988;27;19924;-75
2021/12/01 03:25:53;;;;;;;;;;;6.90;92.90;;;;;;4707831;27;20002;-75
2021/12/01 03:28:09;;;;;;;;;;;6.90;92.90;;;;;;4707986;27;19930;-75
2021/12/01 03:30:25;;;;;;;;;;;6.90;92.80;;;;;;4707851;27;20411;-75
2021/12/01 03:32:42;;;;;;;;;;;6.90;92.80;;;;;;4709266;27;19959;-74
2021/12/01 03:35:02;;;;;;;;;;;6.90;92.90;;;;;;4707463;27;19923;-74
2021/12/01 03:37:21;;;;;;;;;;;7.00;92.90;;;;;;4709608;27;19924;-73
2021/12/01 03:39:37;;;;;;;;;;;7.00;93.00;;;;;;4708885;27;20008;-73
2021/12/01 03:41:57;;;;;;;;;;;7.00;93.00;;;;;;4708060;27;20407;-72
2021/12/01 03:44:13;;;;;;;;;;;7.00;92.90;;;;;;4707236;27;19923;-73
2021/12/01 03:46:30;;;;;;;;;;;7.10;93.00;;;;;;4707876;27;19995;-73
2021/12/01 03:48:49;;;;;;;;;;;7.10;92.90;;;;;;4708687;27;19923;-73
2021/12/01 03:51:10;;;;;;;;;;;7.10;92.90;;;;;;4707592;27;19923;-73
2021/12/01 03:53:26;;;;;;;;;;;7.10;92.90;;;;;;4708560;27;19967;-73
2021/12/01 03:55:43;;;;;;;;;;;7.20;93.00;;;;;;4707328;27;19929;-73
2021/12/01 03:58:00;;;;;;;;;;;7.20;93.00;;;;;;4707308;27;20371;-73
2021/12/01 04:00:18;;;;;;;;;;;7.20;93.00;;;;;;4708607;27;19988;-73
2021/12/01 04:02:34;;;;;;;;;;;7.20;92.90;;;;;;4708520;27;20180;-73
2021/12/01 04:04:51;;;;;;;;;;;7.20;92.90;;;;;;4707434;27;20361;-74
2021/12/01 04:07:07;;;;;;;;;;;7.20;92.80;;;;;;4708462;27;19958;-73
2021/12/01 04:09:24;;;;;;;;;;;7.20;92.80;;;;;;4708318;27;19927;-74
2021/12/01 04:11:40;;;;;;;;;;;7.20;92.80;;;;;;4708779;27;19930;-74
2021/12/01 04:13:58;;;;;;;;;;;7.20;92.90;;;;;;4708031;27;20305;-74
2021/12/01 04:16:14;;;;;;;;;;;7.20;92.80;;;;;;4708630;27;20295;-74
2021/12/01 04:18:32;;;;;;;;;;;7.20;92.90;;;;;;4706605;27;20713;-74
2021/12/01 04:20:49;;;;;;;;;;;7.20;93.00;;;;;;4707021;27;20274;-73
2021/12/01 04:23:05;;;;;;;;;;;7.20;93.00;;;;;;4706617;27;20449;-73
2021/12/01 04:25:21;;;;;;;;;;;7.20;92.90;;;;;;4707154;27;19928;-73
2021/12/01 04:27:38;;;;;;;;;;;7.30;92.90;;;;;;4707165;27;19962;-73
2021/12/01 04:29:56;;;;;;;;;;;7.20;92.90;;;;;;4707053;27;19927;-73
2021/12/01 04:32:12;;;;;;;;;;;7.20;92.90;;;;;;4705912;27;20385;-73
2021/12/01 04:34:28;;;;;;;;;;;7.20;92.90;;;;;;4706883;27;20007;-73
2021/12/01 04:36:45;;;;;;;;;;;7.20;92.90;;;;;;4706960;27;19930;-73
2021/12/01 04:39:06;;;;;;;;;;;7.20;92.80;;;;;;4705695;27;19930;-73
2021/12/01 04:41:23;;;;;;;;;;;7.20;92.80;;;;;;4705524;27;19959;-73
2021/12/01 04:43:39;;;;;;;;;;;7.20;92.90;;;;;;4705621;27;19934;-73
2021/12/01 04:45:59;;;;;;;;;;;7.20;92.90;;;;;;4706669;27;19924;-72
2021/12/01 04:48:19;;;;;;;;;;;7.20;92.90;;;;;;4707197;27;19963;-73
2021/12/01 04:50:35;;;;;;;;;;;7.30;93.00;;;;;;4705338;27;20385;-73
2021/12/01 04:52:53;;;;;;;;;;;7.20;93.00;;;;;;4706719;27;19931;-73
2021/12/01 04:55:13;;;;;;;;;;;7.20;92.90;;;;;;4706740;27;19930;-72
2021/12/01 04:57:29;;;;;;;;;;;7.20;92.90;;;;;;4705244;27;19924;-72
2021/12/01 04:59:45;;;;;;;;;;;7.30;92.90;;;;;;4706633;27;19942;-72
2021/12/01 05:02:04;;;;;;;;;;;7.20;93.00;;;;;;4705171;27;19974;-74
2021/12/01 05:04:21;;;;;;;;;;;7.20;93.30;;;;;;4705270;27;19930;-74
2021/12/01 05:06:37;;;;;;;;;;;7.20;92.90;;;;;;4705158;27;19963;-75
2021/12/01 05:08:54;;;;;;;;;;;7.20;92.90;;;;;;4705017;27;20031;-74
2021/12/01 05:11:10;;;;;;;;;;;7.20;93.00;;;;;;4705187;27;19923;-75
2021/12/01 05:13:26;;;;;;;;;;;7.20;93.00;;;;;;4706138;27;19931;-75
2021/12/01 05:15:45;;;;;;;;;;;7.20;93.00;;;;;;4704967;27;19962;-74
2021/12/01 05:18:02;;;;;;;;;;;7.20;93.00;;;;;;4706192;27;19927;-74
2021/12/01 05:20:23;;;;;;;;;;;7.20;93.00;;;;;;4706286;27;19927;-74
2021/12/01 05:22:40;;;;;;;;;;;7.20;93.10;;;;;;4704872;27;19976;-74
2021/12/01 05:24:58;;;;;;;;;;;7.20;93.00;;;;;;4705404;27;19923;-74
2021/12/01 05:27:14;;;;;;;;;;;7.20;93.00;;;;;;4706393;27;19930;-75
2021/12/01 05:29:30;;;;;;;;;;;7.20;93.00;;;;;;4704640;27;19931;-75
2021/12/01 05:31:49;;;;;;;;;;;7.20;93.10;;;;;;4705354;27;20004;-72
2021/12/01 05:34:07;;;;;;;;;;;7.20;93.00;;;;;;4704707;27;20377;-73
2021/12/01 05:36:23;;;;;;;;;;;7.30;93.20;;;;;;4704650;27;19955;-72
2021/12/01 05:38:39;;;;;;;;;;;7.30;93.10;;;;;;4706203;27;19927;-73
2021/12/01 05:40:55;;;;;;;;;;;7.30;93.10;;;;;;4705624;27;19923;-73
2021/12/01 05:43:12;;;;;;;;;;;7.30;93.10;;;;;;4704381;27;19976;-72
2021/12/01 05:45:28;;;;;;;;;;;7.30;93.10;;;;;;4704275;27;19923;-72
2021/12/01 05:47:45;;;;;;;;;;;7.30;93.10;;;;;;4704458;27;20389;-73
2021/12/01 05:50:03;;;;;;;;;;;7.30;93.10;;;;;;4704376;27;20396;-74
2021/12/01 05:52:19;;;;;;;;;;;7.40;93.20;;;;;;4705526;27;19924;-74
2021/12/01 05:54:38;;;;;;;;;;;7.40;93.20;;;;;;4704463;27;19928;-74
2021/12/01 05:56:55;;;;;;;;;;;7.40;93.20;;;;;;4704326;27;19923;-74
2021/12/01 05:59:11;;;;;;;;;;;7.40;93.20;;;;;;4704411;27;19973;-74
2021/12/01 06:01:29;;;;;;;;;;;7.40;93.20;;;;;;4704257;27;20285;-74
2021/12/01 06:03:46;;;;;;;;;;;7.40;93.20;;;;;;4703982;27;19923;-74
2021/12/01 06:06:03;;;;;;;;;;;7.40;93.50;;;;;;4704228;27;20438;-73
2021/12/01 06:08:20;;;;;;;;;;;7.50;93.20;;;;;;4703944;27;19934;-74
2021/12/01 06:10:36;;;;;;;;;;;7.50;93.30;;;;;;4705296;27;19923;-74
2021/12/01 06:12:52;;;;;;;;;;;7.50;93.20;;;;;;4703974;27;19931;-74
2021/12/01 06:15:09;;;;;;;;;;;7.50;93.30;;;;;;4703850;27;19988;-74
2021/12/01 06:17:25;;;;;;;;;;;7.50;93.20;;;;;;4703933;27;20361;-74
2021/12/01 06:19:44;;;;;;;;;;;7.60;93.30;;;;;;4705172;27;19946;-74
2021/12/01 06:22:02;;;;;;;;;;;7.60;93.20;;;;;;4705285;27;19923;-73
2021/12/01 06:24:18;;;;;;;;;;;7.50;93.20;;;;;;4703811;27;19962;-73
2021/12/01 06:26:34;;;;;;;;;;;7.60;93.20;;;;;;4703626;27;20335;-73
2021/12/01 06:28:51;;;;;;;;;;;7.60;93.30;;;;;;4703747;27;20394;-72
2021/12/01 06:31:07;;;;;;;;;;;7.60;93.30;;;;;;4705000;27;19965;-72
2021/12/01 06:33:23;;;;;;;;;;;7.60;93.30;;;;;;4703871;28;19986;-71
2021/12/01 06:35:44;;;;;;;;;;;7.60;93.20;;;;;;4703625;28;19924;-71
2021/12/01 06:38:03;;;;;;;;;;;7.60;93.20;;;;;;4705004;27;20416;-71
2021/12/01 06:40:22;;;;;;;;;;;7.70;93.20;;;;;;4704942;27;19930;-71
2021/12/01 06:42:38;;;;;;;;;;;7.70;93.20;;;;;;4704405;27;19923;-72
2021/12/01 06:44:54;;;;;;;;;;;7.70;93.20;;;;;;4707535;27;19931;-72
2021/12/01 06:47:10;;;;;;;;;;;7.70;93.20;;;;;;4707457;27;20424;-73
2021/12/01 06:49:27;;;;;;;;;;;7.70;93.20;;;;;;4707391;27;20377;-72
2021/12/01 06:51:43;;;;;;;;;;;7.70;93.20;;;;;;4708803;27;19958;-73
2021/12/01 06:54:00;;;;;;;;;;;7.70;93.20;;;;;;4707325;27;19935;-73
2021/12/01 06:56:17;;;;;;;;;;;7.70;93.20;;;;;;4708825;27;19923;-72
2021/12/01 06:58:35;;;;;;;;;;;7.80;93.20;;;;;;4707203;27;19980;-72
2021/12/01 07:00:51;;;;;;;;;;;7.80;93.20;;;;;;4707345;27;19924;-72
2021/12/01 07:03:08;;;;;;;;;;;7.80;93.20;;;;;;4708607;27;20014;-72
2021/12/01 07:05:25;;;;;;;;;;;7.80;93.20;;;;;;4707253;27;19927;-72
2021/12/01 07:07:41;;;;;;;;;;;7.80;93.20;;;;;;4707294;27;19944;-73
2021/12/01 07:09:58;;;;;;;;;;;7.80;93.10;;;;;;4707128;27;19924;-73
2021/12/01 07:12:15;;;;;;;;;;;7.80;93.20;;;;;;4708543;27;19958;-72
2021/12/01 07:14:31;;;;;;;;;;;7.90;93.10;;;;;;4706881;27;19985;-72
2021/12/01 07:16:47;;;;;;;;;;;7.90;93.10;;;;;;4708032;27;20282;-72
2021/12/01 07:19:06;;;;;;;;;;;7.90;93.10;;;;;;4706800;27;20388;-72
2021/12/01 07:21:22;;;;;;;;;;;7.90;93.10;;;;;;4708188;27;20169;-72
2021/12/01 07:23:42;;;;;;;;;;;7.90;93.10;;;;;;4708282;27;19923;-72
2021/12/01 07:25:59;;;;;;;;;;;7.90;93.10;;;;;;4706775;27;19985;-73
2021/12/01 07:28:15;;;;;;;;;;;8.00;93.10;;;;;;4706943;27;19928;-72
2021/12/01 07:30:32;;;;;;;;;;;8.00;93.10;;;;;;4707750;27;19930;-72
2021/12/01 07:32:51;;;;;;;;;;;8.00;92.90;;;;;;4706235;27;19964;-72
2021/12/01 07:35:07;;;;;;;;;;;8.00;92.90;;;;;;4704882;27;19930;-71
2021/12/01 07:37:24;;;;;;;;;;;8.00;93.00;;;;;;4705944;27;20389;-72
2021/12/01 07:39:40;;;;;;;;;;;8.00;93.00;;;;;;4706877;27;20381;-71
2021/12/01 07:41:58;;;;;;;;;;;8.10;93.00;;;;;;4706165;27;19931;-71
2021/12/01 07:44:14;;;;;;;;;;;8.10;92.70;;;;;;4706639;27;19954;-71
2021/12/01 07:46:31;;;;;;;;;;;8.00;92.40;;;;;;4706339;27;19959;-71
2021/12/01 07:48:49;;;;;;;;;;;8.00;92.50;;;;;;4706364;27;20126;-71
2021/12/01 07:51:05;;;;;;;;;;;8.00;92.80;;;;;;4707812;27;19924;-72
2021/12/01 07:53:22;;;;;;;;;;;8.00;92.70;;;;;;4707648;27;19958;-72
2021/12/01 07:55:40;;;;;;;;;;;8.00;92.70;;;;;;4707073;27;19931;-70
2021/12/01 07:57:58;;;;;;;;;;;8.00;92.80;;;;;;4705970;27;19923;-71
2021/12/01 08:00:15;;;;;;;;;;;8.10;93.00;;;;;;4706388;27;20012;-72
2021/12/01 08:02:35;;;;;;;;;;;8.10;92.90;;;;;;4707598;27;19924;-73
2021/12/01 08:04:51;;;;;;;;;;;8.20;92.90;;;;;;4706199;27;19928;-71
2021/12/01 08:07:10;;;;;;;;;;;8.20;92.80;;;;;;4706318;27;20361;-72
2021/12/01 08:09:27;;;;;;;;;;;8.20;92.50;;;;;;4707408;27;19927;-72
2021/12/01 08:11:43;;;;;;;;;;;8.20;93.10;;;;;;4707397;27;19924;-72
2021/12/01 08:14:01;;;;;;;;;;;8.30;92.80;;;;;;4707235;27;19966;-72
2021/12/01 08:16:17;;;;;;;;;;;8.30;92.60;;;;;;4706197;27;20270;-73
2021/12/01 08:18:33;;;;;;;;;;;8.30;92.80;;;;;;4707414;27;19966;-72
2021/12/01 08:20:49;;;;;;;;;;;8.30;92.80;;;;;;4707047;27;20385;-72
2021/12/01 08:23:06;;;;;;;;;;;8.40;92.70;;;;;;4706156;27;20317;-72
2021/12/01 08:25:22;;;;;;;;;;;8.40;92.50;;;;;;4705752;27;20412;-73
2021/12/01 08:27:39;;;;;;;;;;;8.40;92.60;;;;;;4707141;27;20367;-73
2021/12/01 08:29:58;;;;;;;;;;;8.40;92.70;;;;;;4707082;27;20397;-72
2021/12/01 08:32:14;;;;;;;;;;;8.40;92.70;;;;;;4707128;27;19930;-73
2021/12/01 08:34:31;;;;;;;;;;;8.40;92.80;;;;;;4705662;27;19969;-73
2021/12/01 08:36:47;;;;;;;;;;;8.50;92.80;;;;;;4705646;27;19930;-73
2021/12/01 08:39:04;;;;;;;;;;;8.50;92.60;;;;;;4706968;27;19923;-72
2021/12/01 08:41:20;;;;;;;;;;;8.50;92.70;;;;;;4706871;27;19927;-72
2021/12/01 08:43:36;;;;;;;;;;;8.50;92.40;;;;;;4706735;27;20377;-74
2021/12/01 08:45:54;;;;;;;;;;;8.60;92.70;;;;;;4705774;27;20300;-74
2021/12/01 08:48:11;;;;;;;;;;;8.50;92.50;;;;;;4706713;27;19961;-74
2021/12/01 08:50:27;;;;;;;;;;;8.60;92.50;;;;;;4706861;27;20381;-73
2021/12/01 08:52:45;;;;;;;;;;;8.50;92.70;;;;;;4705380;27;19952;-74
2021/12/01 08:55:03;;;;;;;;;;;8.50;93.00;;;;;;4705411;27;19966;-73
2021/12/01 08:57:20;;;;;;;;;;;8.60;93.30;;;;;;4705384;27;19924;-74
2021/12/01 08:59:36;;;;;;;;;;;8.70;93.20;;;;;;4705047;27;19928;-72
2021/12/01 09:01:54;;;;;;;;;;;8.80;93.20;;;;;;4705470;27;19951;-74
2021/12/01 09:04:10;;;;;;;;;;;8.80;92.80;;;;;;4704962;27;19935;-74
2021/12/01 09:06:26;;;;;;;;;;;8.80;93.40;;;;;;4705548;27;19930;-72
2021/12/01 09:08:43;;;;;;;;;;;8.90;93.00;;;;;;4704874;27;20459;-73
2021/12/01 09:11:02;;;;;;;;;;;8.90;92.80;;;;;;4705146;27;19931;-73
2021/12/01 09:13:18;;;;;;;;;;;8.90;92.50;;;;;;4706259;27;20677;-73
2021/12/01 09:15:35;;;;;;;;;;;8.90;92.50;;;;;;4704995;27;19982;-73
2021/12/01 09:17:52;;;;;;;;;;;8.90;92.70;;;;;;4706236;27;19929;-71
2021/12/01 09:20:10;;;;;;;;;;;8.90;92.70;;;;;;4704667;27;19955;-74
2021/12/01 09:22:26;;;;;;;;;;;9.00;92.80;;;;;;4706078;27;20438;-72
2021/12/01 09:24:45;;;;;;;;;;;9.00;92.60;;;;;;4704755;27;20309;-73
2021/12/01 09:27:01;;;;;;;;;;;9.00;92.70;;;;;;4704546;27;19935;-72
2021/12/01 09:29:20;;;;;;;;;;;9.10;92.80;;;;;;4704801;27;19959;-72
2021/12/01 09:31:37;;;;;;;;;;;9.10;92.80;;;;;;4705869;27;20373;-73
2021/12/01 09:33:54;;;;;;;;;;;9.20;92.70;;;;;;4705956;27;19923;-71
2021/12/01 09:36:13;;;;;;;;;;;9.20;92.60;;;;;;4703441;27;19947;-71
2021/12/01 09:38:29;;;;;;;;;;;9.20;92.70;;;;;;4686120;28;19930;-71
2021/12/01 09:40:49;;;;;;;;;;;9.30;92.60;;;;;;4685256;28;19923;-71
2021/12/01 09:43:06;;;;;;;;;;;9.30;92.60;;;;;;4684419;28;20699;-70
2021/12/01 09:45:23;;;;;;;;;;;9.40;92.60;;;;;;4684848;28;19923;-71
2021/12/01 09:47:42;;;;;;;;;;;9.40;92.60;;;;;;4685995;28;20014;-69
2021/12/01 09:50:00;;;;;;;;;;;9.50;92.70;;;;;;4684435;28;19969;-71
2021/12/01 09:52:16;;;;;;;;;;;9.50;92.70;;;;;;4684347;28;20018;-70
2021/12/01 09:54:32;;;;;;;;;;;9.60;92.70;;;;;;4685587;28;19951;-71
2021/12/01 09:56:49;;;;;;;;;;;9.70;92.70;;;;;;4685394;28;19931;-70
2021/12/01 09:59:08;;;;;;;;;;;9.80;92.80;;;;;;4684555;28;19965;-70
2021/12/01 10:01:27;;;;;;;;;;;9.90;92.80;;;;;;4685127;28;19969;-70
2021/12/01 10:03:44;;;;;;;;;;;10.00;92.60;;;;;;4684504;28;20348;-72
2021/12/01 10:06:07;;;;;;;;;;;10.10;92.60;;;;;;4686550;28;19930;-70
2021/12/01 10:08:24;;;;;;;;;;;10.20;92.50;;;;;;4686541;28;20424;-72
2021/12/01 10:10:40;;;;;;;;;;;10.30;92.40;;;;;;4685287;28;19966;-71
2021/12/01 10:12:57;;;;;;;;;;;10.30;92.30;;;;;;4683765;28;20011;-71
2021/12/01 10:15:13;;;;;;;;;;;10.40;92.20;;;;;;4684732;28;19924;-71
2021/12/01 10:17:33;;;;;;;;;;;10.40;92.10;;;;;;4684559;28;19955;-71
2021/12/01 10:20:07;;;;;;;;;;;10.40;91.80;;;;;;4685279;28;19934;-71
2021/12/01 10:22:24;;;;;;;;;;;10.40;91.90;;;;;;4684967;28;20187;-71
2021/12/01 10:24:41;;;;;;;;;;;10.50;91.80;;;;;;4686433;28;19955;-71
2021/12/01 10:27:01;;;;;;;;;;;10.40;91.40;;;;;;4684856;28;19923;-71
2021/12/01 10:29:20;;;;;;;;;;;10.40;91.60;;;;;;4685907;28;20283;-72
2021/12/01 10:31:38;;;;;;;;;;;10.40;91.70;;;;;;4686363;28;20334;-72
2021/12/01 10:33:54;;;;;;;;;;;10.40;91.70;;;;;;4686211;28;19962;-71
2021/12/01 10:36:11;;;;;;;;;;;10.50;91.60;;;;;;4684067;28;19930;-71
2021/12/01 10:38:30;;;;;;;;;;;10.40;91.40;;;;;;4685308;28;19924;-71
2021/12/01 10:40:46;;;;;;;;;;;10.50;91.40;;;;;;4686127;28;19939;-71
2021/12/01 10:43:03;;;;;;;;;;;10.50;91.30;;;;;;4686155;28;19924;-71
2021/12/01 10:45:21;;;;;;;;;;;10.50;91.10;;;;;;4685105;28;20309;-72
2021/12/01 10:47:40;;;;;;;;;;;10.40;91.10;;;;;;4686040;28;19931;-72
2021/12/01 10:49:59;;;;;;;;;;;10.40;91.00;;;;;;4684995;28;19931;-71
2021/12/01 10:52:31;;;;;;;;;;;10.40;91.00;;;;;;4685833;28;20405;-72
2021/12/01 10:55:01;;;;;;;;;;;10.40;91.00;;;;;;4684916;28;19924;-72
2021/12/01 10:57:19;;;;;;;;;;;10.40;90.90;;;;;;4683252;28;19955;-71
2021/12/01 10:59:43;;;;;;;;;;;10.40;90.80;;;;;;4682698;28;19927;-70
2021/12/01 11:02:10;;;;;;;;;;;10.40;90.40;;;;;;4683502;28;19924;-71
2021/12/01 11:04:41;;;;;;;;;;;10.40;90.70;;;;;;4684028;28;19962;-71
2021/12/01 11:06:58;;;;;;;;;;;10.40;90.40;;;;;;4683808;28;19955;-72
2021/12/01 11:09:14;;;;;;;;;;;10.40;90.60;;;;;;4683740;28;19924;-72
2021/12/01 11:11:38;;;;;;;;;;;10.40;90.60;;;;;;4684892;28;19951;-72
2021/12/01 11:14:16;;;;;;;;;;;10.40;90.40;;;;;;4684751;28;19924;-71
2021/12/01 11:16:36;;;;;;;;;;;10.40;90.70;;;;;;4684833;28;19924;-71
2021/12/01 11:18:52;;;;;;;;;;;10.50;90.50;;;;;;4685567;28;20019;-70
2021/12/01 11:21:12;;;;;;;;;;;10.50;89.90;;;;;;4684789;28;19924;-71
2021/12/01 11:23:30;;;;;;;;;;;10.50;90.30;;;;;;4684520;28;20448;-71
2021/12/01 11:25:51;;;;;;;;;;;10.50;90.30;;;;;;4684314;28;19930;-70
2021/12/01 11:28:13;;;;;;;;;;;10.60;90.10;;;;;;4684467;28;20373;-72
2021/12/01 11:30:30;;;;;;;;;;;10.60;88.80;;;;;;4687973;28;19966;-71
2021/12/01 11:32:59;;;;;;;;;;;10.60;89.50;;;;;;4688176;28;20398;-71
2021/12/01 11:35:16;;;;;;;;;;;10.50;88.50;;;;;;4689278;28;19931;-73
2021/12/01 11:37:32;;;;;;;;;;;10.50;88.10;;;;;;4688027;28;20392;-71
2021/12/01 11:39:51;;;;;;;;;;;10.50;86.80;;;;;;4688865;28;19924;-72
2021/12/01 11:42:10;;;;;;;;;;;10.50;87.70;;;;;;4688032;28;20343;-72
2021/12/01 11:44:30;;;;;;;;;;;10.50;88.20;;;;;;4687407;28;20381;-71
2021/12/01 11:46:49;;;;;;;;;;;10.60;88.90;;;;;;4689194;28;20393;-71
2021/12/01 11:49:08;;;;;;;;;;;10.60;88.20;;;;;;4687629;28;19923;-70
2021/12/01 11:51:27;;;;;;;;;;;10.60;88.20;;;;;;4688930;28;19955;-70
2021/12/01 11:53:45;;;;;;;;;;;10.60;88.10;;;;;;4688948;28;19924;-69
2021/12/01 11:56:03;;;;;;;;;;;10.60;88.00;;;;;;4687515;28;20294;-68
2021/12/01 11:58:38;;;;;;;;;;;10.70;87.50;;;;;;4687650;28;19923;-70
2021/12/01 12:00:56;;;;;;;;;;;10.70;88.10;;;;;;4688999;28;19927;-68
2021/12/01 12:03:25;;;;;;;;;;;10.70;88.70;;;;;;4688812;28;19923;-68
2021/12/01 12:05:41;;;;;;;;;;;10.80;88.80;;;;;;4688547;28;19959;-70
2021/12/01 12:07:57;;;;;;;;;;;10.90;88.10;;;;;;4687637;28;19938;-69
2021/12/01 12:10:16;;;;;;;;;;;10.90;88.20;;;;;;4686921;28;20010;-69
2021/12/01 12:12:59;;;;;;;;;;;11.00;88.00;;;;;;4687389;28;19935;-70
2021/12/01 12:15:30;;;;;;;;;;;11.00;87.00;;;;;;4688577;28;19946;-70
2021/12/01 12:17:48;;;;;;;;;;;11.00;87.60;;;;;;4670875;28;20452;-70
2021/12/01 12:20:11;;;;;;;;;;;11.00;88.00;;;;;;4688240;27;19951;-68
2021/12/01 12:22:32;;;;;;;;;;;11.10;87.60;;;;;;4687114;28;19931;-71
2021/12/01 12:24:52;;;;;;;;;;;11.10;87.80;;;;;;4687195;28;19955;-71
2021/12/01 12:27:28;;;;;;;;;;;11.30;87.60;;;;;;4688072;28;19924;-72
2021/12/01 12:29:45;;;;;;;;;;;11.30;86.60;;;;;;4687310;28;20387;-72
2021/12/01 12:32:16;;;;;;;;;;;11.30;85.70;;;;;;4687960;28;19946;-72
2021/12/01 12:34:48;;;;;;;;;;;11.40;86.50;;;;;;4686881;28;19924;-71
2021/12/01 12:37:20;;;;;;;;;;;11.40;85.90;;;;;;4688255;28;20000;-73
2021/12/01 12:39:45;;;;;;;;;;;11.50;84.30;;;;;;4686826;28;20022;-73
2021/12/01 12:42:06;;;;;;;;;;;11.40;85.20;;;;;;4687725;28;19924;-72
2021/12/01 12:44:30;;;;;;;;;;;11.40;85.20;;;;;;4688002;28;19951;-71
2021/12/01 12:47:06;;;;;;;;;;;11.40;85.10;;;;;;4687020;28;19931;-71
2021/12/01 12:49:36;;;;;;;;;;;11.40;84.20;;;;;;4687561;28;20381;-72
2021/12/01 12:51:52;;;;;;;;;;;11.40;85.30;;;;;;4687940;28;20014;-72
2021/12/01 12:54:18;;;;;;;;;;;11.30;85.90;;;;;;4686343;28;19966;-71
2021/12/01 12:56:35;;;;;;;;;;;11.50;86.20;;;;;;4687803;28;20369;-71
2021/12/01 12:58:51;;;;;;;;;;;11.60;86.30;;;;;;4687712;28;20354;-71
2021/12/01 13:01:08;;;;;;;;;;;11.70;84.60;;;;;;4687582;28;20373;-71
2021/12/01 13:03:29;;;;;;;;;;;11.70;84.80;;;;;;4686271;28;20477;-72
2021/12/01 13:05:46;;;;;;;;;;;11.60;84.80;;;;;;4686398;28;19928;-71
2021/12/01 13:08:03;;;;;;;;;;;11.70;84.00;;;;;;4687668;28;19931;-70
2021/12/01 13:10:24;;;;;;;;;;;11.60;83.60;;;;;;4687472;28;19923;-72
2021/12/01 13:12:44;;;;;;;;;;;11.60;84.40;;;;;;4686464;28;19931;-71
2021/12/01 13:15:01;;;;;;;;;;;11.50;84.40;;;;;;4685910;28;19924;-71
2021/12/01 13:17:21;;;;;;;;;;;11.50;83.20;;;;;;4686449;28;19931;-71
2021/12/01 13:19:37;;;;;;;;;;;11.40;82.70;;;;;;4687110;28;19931;-70
2021/12/01 13:21:57;;;;;;;;;;;11.50;84.50;;;;;;4686117;28;20392;-71
2021/12/01 13:24:13;;;;;;;;;;;11.40;83.70;;;;;;4685797;28;19931;-69
2021/12/01 13:26:33;;;;;;;;;;;11.40;83.00;;;;;;4687139;28;19931;-71
2021/12/01 13:28:50;;;;;;;;;;;11.30;83.70;;;;;;4687214;28;19930;-71
2021/12/01 13:31:08;;;;;;;;;;;11.20;84.10;;;;;;4685916;28;19923;-70
2021/12/01 13:33:24;;;;;;;;;;;11.20;84.50;;;;;;4687211;28;20329;-69
2021/12/01 13:35:41;;;;;;;;;;;11.20;84.10;;;;;;4687237;28;20378;-69
2021/12/01 13:37:59;;;;;;;;;;;11.10;84.50;;;;;;4687115;28;19924;-72